sensor_id;sensor_type;location;lat;lon;timestamp;temperature;humidity
32293;DHT22;43233;48.608;8.838;2022-12-29T00:02:04;6.70;66.50
32293;DHT22;43233;48.608;8.838;2022-12-29T00:04:30;6.70;66.70
32293;DHT22;43233;48.608;8.838;2022-12-29T00:06:55;6.60;66.80
32293;DHT22;43233;48.608;8.838;2022-12-29T00:09:21;6.80;66.40
32293;DHT22;43233;48.608;8.838;2022-12-29T00:11:46;6.80;66.40
32293;DHT22;43233;48.608;8.838;2022-12-29T00:14:12;6.80;66.50
32293;DHT22;43233;48.608;8.838;2022-12-29T00:16:57;6.80;66.40
32293;DHT22;43233;48.608;8.838;2022-12-29T00:19:23;6.80;66.80
32293;DHT22;43233;48.608;8.838;2022-12-29T00:22:10;6.80;66.90
32293;DHT22;43233;48.608;8.838;2022-12-29T00:24:55;6.80;66.90
32293;DHT22;43233;48.608;8.838;2022-12-29T00:27:28;6.70;67.00
32293;DHT22;43233;48.608;8.838;2022-12-29T00:30:14;6.80;67.00
32293;DHT22;43233;48.608;8.838;2022-12-29T00:32:59;6.70;67.00
32293;DHT22;43233;48.608;8.838;2022-12-29T00:35:52;6.80;67.10
32293;DHT22;43233;48.608;8.838;2022-12-29T00:38:19;6.90;66.80
32293;DHT22;43233;48.608;8.838;2022-12-29T00:41:04;6.90;66.50
32293;DHT22;43233;48.608;8.838;2022-12-29T00:43:49;6.90;66.70
32293;DHT22;43233;48.608;8.838;2022-12-29T00:46:41;6.90;66.70
32293;DHT22;43233;48.608;8.838;2022-12-29T00:49:10;6.80;66.90
32293;DHT22;43233;48.608;8.838;2022-12-29T00:51:55;6.80;67.20
32293;DHT22;43233;48.608;8.838;2022-12-29T00:54:21;6.70;67.80
32293;DHT22;43233;48.608;8.838;2022-12-29T00:57:11;6.70;67.90
32293;DHT22;43233;48.608;8.838;2022-12-29T00:59:38;6.70;68.10
32293;DHT22;43233;48.608;8.838;2022-12-29T01:02:04;6.80;67.90
32293;DHT22;43233;48.608;8.838;2022-12-29T01:04:31;6.80;67.80
32293;DHT22;43233;48.608;8.838;2022-12-29T01:06:57;6.80;67.90
32293;DHT22;43233;48.608;8.838;2022-12-29T01:09:23;6.80;67.80
32293;DHT22;43233;48.608;8.838;2022-12-29T01:12:08;6.90;67.40
32293;DHT22;43233;48.608;8.838;2022-12-29T01:14:34;6.90;68.40
32293;DHT22;43233;48.608;8.838;2022-12-29T01:17:00;7.00;67.60
32293;DHT22;43233;48.608;8.838;2022-12-29T01:19:26;7.00;67.60
32293;DHT22;43233;48.608;8.838;2022-12-29T01:21:52;7.00;67.60
32293;DHT22;43233;48.608;8.838;2022-12-29T01:24:19;7.00;67.60
32293;DHT22;43233;48.608;8.838;2022-12-29T01:26:45;7.10;67.40
32293;DHT22;43233;48.608;8.838;2022-12-29T01:29:11;7.10;67.20
32293;DHT22;43233;48.608;8.838;2022-12-29T01:31:37;7.10;67.20
32293;DHT22;43233;48.608;8.838;2022-12-29T01:34:03;7.20;67.10
32293;DHT22;43233;48.608;8.838;2022-12-29T01:36:29;7.20;67.10
32293;DHT22;43233;48.608;8.838;2022-12-29T01:38:55;7.20;67.10
32293;DHT22;43233;48.608;8.838;2022-12-29T01:41:21;7.30;66.80
32293;DHT22;43233;48.608;8.838;2022-12-29T01:43:51;7.30;66.70
32293;DHT22;43233;48.608;8.838;2022-12-29T01:46:42;7.30;66.60
32293;DHT22;43233;48.608;8.838;2022-12-29T01:49:24;7.40;66.60
32293;DHT22;43233;48.608;8.838;2022-12-29T01:51:56;7.40;66.20
32293;DHT22;43233;48.608;8.838;2022-12-29T01:54:24;7.40;66.40
32293;DHT22;43233;48.608;8.838;2022-12-29T01:56:52;7.40;66.60
32293;DHT22;43233;48.608;8.838;2022-12-29T01:59:24;7.40;67.60
32293;DHT22;43233;48.608;8.838;2022-12-29T02:01:50;7.40;66.70
32293;DHT22;43233;48.608;8.838;2022-12-29T02:04:16;7.50;66.10
32293;DHT22;43233;48.608;8.838;2022-12-29T02:06:50;7.50;66.00
32293;DHT22;43233;48.608;8.838;2022-12-29T02:09:18;7.50;65.80
32293;DHT22;43233;48.608;8.838;2022-12-29T02:11:43;7.50;65.70
32293;DHT22;43233;48.608;8.838;2022-12-29T02:14:13;7.50;65.70
32293;DHT22;43233;48.608;8.838;2022-12-29T02:28:14;7.50;65.90
32293;DHT22;43233;48.608;8.838;2022-12-29T02:34:09;7.50;65.70
32293;DHT22;43233;48.608;8.838;2022-12-29T02:41:46;8.10;63.80
32293;DHT22;43233;48.608;8.838;2022-12-29T02:44:34;8.50;62.30
32293;DHT22;43233;48.608;8.838;2022-12-29T02:52:22;9.10;60.00
32293;DHT22;43233;48.608;8.838;2022-12-29T02:54:49;9.20;59.40
32293;DHT22;43233;48.608;8.838;2022-12-29T02:59:42;9.60;57.70
32293;DHT22;43233;48.608;8.838;2022-12-29T03:13:01;9.90;57.00
32293;DHT22;43233;48.608;8.838;2022-12-29T03:15:51;9.90;56.40
32293;DHT22;43233;48.608;8.838;2022-12-29T03:18:49;10.00;56.30
32293;DHT22;43233;48.608;8.838;2022-12-29T03:21:36;10.10;56.00
32293;DHT22;43233;48.608;8.838;2022-12-29T03:24:25;10.20;56.00
32293;DHT22;43233;48.608;8.838;2022-12-29T03:26:55;10.10;56.20
32293;DHT22;43233;48.608;8.838;2022-12-29T03:29:22;10.10;56.50
32293;DHT22;43233;48.608;8.838;2022-12-29T03:31:49;10.10;57.00
32293;DHT22;43233;48.608;8.838;2022-12-29T03:34:18;10.00;56.90
32293;DHT22;43233;48.608;8.838;2022-12-29T03:36:52;10.10;56.60
32293;DHT22;43233;48.608;8.838;2022-12-29T03:39:20;10.10;56.90
32293;DHT22;43233;48.608;8.838;2022-12-29T03:41:50;10.10;56.90
32293;DHT22;43233;48.608;8.838;2022-12-29T03:44:18;10.10;57.20
32293;DHT22;43233;48.608;8.838;2022-12-29T03:46:44;10.10;57.30
32293;DHT22;43233;48.608;8.838;2022-12-29T03:49:09;10.10;57.50
32293;DHT22;43233;48.608;8.838;2022-12-29T03:51:35;10.10;57.40
32293;DHT22;43233;48.608;8.838;2022-12-29T03:54:00;10.10;57.60
32293;DHT22;43233;48.608;8.838;2022-12-29T03:56:26;10.10;57.70
32293;DHT22;43233;48.608;8.838;2022-12-29T03:58:52;10.00;57.80
32293;DHT22;43233;48.608;8.838;2022-12-29T04:01:17;10.00;58.00
32293;DHT22;43233;48.608;8.838;2022-12-29T04:03:43;10.00;58.10
32293;DHT22;43233;48.608;8.838;2022-12-29T04:06:08;10.10;58.30
32293;DHT22;43233;48.608;8.838;2022-12-29T04:08:34;10.10;58.20
32293;DHT22;43233;48.608;8.838;2022-12-29T04:10:59;10.10;58.20
32293;DHT22;43233;48.608;8.838;2022-12-29T04:13:25;10.20;58.00
32293;DHT22;43233;48.608;8.838;2022-12-29T04:15:51;10.10;58.40
32293;DHT22;43233;48.608;8.838;2022-12-29T04:18:16;10.10;58.70
32293;DHT22;43233;48.608;8.838;2022-12-29T04:20:42;9.90;59.20
32293;DHT22;43233;48.608;8.838;2022-12-29T04:23:30;9.90;59.60
32293;DHT22;43233;48.608;8.838;2022-12-29T04:25:56;9.90;59.50
32293;DHT22;43233;48.608;8.838;2022-12-29T04:28:22;9.90;59.60
32293;DHT22;43233;48.608;8.838;2022-12-29T04:30:48;10.00;59.50
32293;DHT22;43233;48.608;8.838;2022-12-29T04:33:14;10.00;59.60
32293;DHT22;43233;48.608;8.838;2022-12-29T04:35:39;10.00;59.50
32293;DHT22;43233;48.608;8.838;2022-12-29T04:38:05;10.10;59.40
32293;DHT22;43233;48.608;8.838;2022-12-29T04:40:31;10.10;59.20
32293;DHT22;43233;48.608;8.838;2022-12-29T04:42:56;10.00;59.40
32293;DHT22;43233;48.608;8.838;2022-12-29T04:45:22;10.10;59.20
32293;DHT22;43233;48.608;8.838;2022-12-29T04:47:48;10.10;59.30
32293;DHT22;43233;48.608;8.838;2022-12-29T04:50:13;10.10;59.20
32293;DHT22;43233;48.608;8.838;2022-12-29T04:52:39;10.10;59.30
32293;DHT22;43233;48.608;8.838;2022-12-29T04:55:05;10.10;59.30
32293;DHT22;43233;48.608;8.838;2022-12-29T04:57:31;10.10;59.30
32293;DHT22;43233;48.608;8.838;2022-12-29T04:59:57;10.10;59.40
32293;DHT22;43233;48.608;8.838;2022-12-29T05:02:23;10.10;59.30
32293;DHT22;43233;48.608;8.838;2022-12-29T05:04:49;10.10;59.20
32293;DHT22;43233;48.608;8.838;2022-12-29T05:07:15;10.10;59.30
32293;DHT22;43233;48.608;8.838;2022-12-29T05:09:41;10.10;59.40
32293;DHT22;43233;48.608;8.838;2022-12-29T05:12:07;10.10;59.50
32293;DHT22;43233;48.608;8.838;2022-12-29T05:14:32;10.00;59.40
32293;DHT22;43233;48.608;8.838;2022-12-29T05:16:58;10.00;59.80
32293;DHT22;43233;48.608;8.838;2022-12-29T05:19:24;10.00;59.90
32293;DHT22;43233;48.608;8.838;2022-12-29T05:21:49;10.00;59.50
32293;DHT22;43233;48.608;8.838;2022-12-29T05:24:15;10.10;59.50
32293;DHT22;43233;48.608;8.838;2022-12-29T05:26:41;10.10;59.40
32293;DHT22;43233;48.608;8.838;2022-12-29T05:29:07;10.20;59.10
32293;DHT22;43233;48.608;8.838;2022-12-29T05:31:32;10.10;59.50
32293;DHT22;43233;48.608;8.838;2022-12-29T05:33:58;10.20;59.20
32293;DHT22;43233;48.608;8.838;2022-12-29T05:36:24;10.20;59.20
32293;DHT22;43233;48.608;8.838;2022-12-29T05:38:50;10.30;58.80
32293;DHT22;43233;48.608;8.838;2022-12-29T05:41:16;10.30;58.50
32293;DHT22;43233;48.608;8.838;2022-12-29T05:43:41;10.30;58.90
32293;DHT22;43233;48.608;8.838;2022-12-29T05:46:07;10.30;58.70
32293;DHT22;43233;48.608;8.838;2022-12-29T05:48:32;10.30;59.20
32293;DHT22;43233;48.608;8.838;2022-12-29T05:50:58;10.30;58.70
32293;DHT22;43233;48.608;8.838;2022-12-29T05:53:24;10.30;58.70
32293;DHT22;43233;48.608;8.838;2022-12-29T05:55:49;10.30;58.70
32293;DHT22;43233;48.608;8.838;2022-12-29T05:58:16;10.30;58.60
32293;DHT22;43233;48.608;8.838;2022-12-29T06:00:42;10.30;58.70
32293;DHT22;43233;48.608;8.838;2022-12-29T06:03:08;10.40;58.20
32293;DHT22;43233;48.608;8.838;2022-12-29T06:05:34;10.40;58.30
32293;DHT22;43233;48.608;8.838;2022-12-29T06:07:59;10.40;58.50
32293;DHT22;43233;48.608;8.838;2022-12-29T06:10:25;10.30;58.50
32293;DHT22;43233;48.608;8.838;2022-12-29T06:12:50;10.30;58.40
32293;DHT22;43233;48.608;8.838;2022-12-29T06:15:16;10.30;58.20
32293;DHT22;43233;48.608;8.838;2022-12-29T06:17:42;10.30;58.30
32293;DHT22;43233;48.608;8.838;2022-12-29T06:20:09;10.30;57.90
32293;DHT22;43233;48.608;8.838;2022-12-29T06:22:35;10.40;57.60
32293;DHT22;43233;48.608;8.838;2022-12-29T06:25:01;10.40;57.70
32293;DHT22;43233;48.608;8.838;2022-12-29T06:27:27;10.40;57.80
32293;DHT22;43233;48.608;8.838;2022-12-29T06:29:52;10.50;57.40
32293;DHT22;43233;48.608;8.838;2022-12-29T06:32:18;10.50;57.10
32293;DHT22;43233;48.608;8.838;2022-12-29T06:34:44;10.50;56.70
32293;DHT22;43233;48.608;8.838;2022-12-29T06:37:10;10.50;56.90
32293;DHT22;43233;48.608;8.838;2022-12-29T06:39:36;10.50;56.90
32293;DHT22;43233;48.608;8.838;2022-12-29T06:42:02;10.50;56.90
32293;DHT22;43233;48.608;8.838;2022-12-29T06:44:28;10.60;56.40
32293;DHT22;43233;48.608;8.838;2022-12-29T06:46:53;10.60;56.20
32293;DHT22;43233;48.608;8.838;2022-12-29T06:49:19;10.50;56.10
32293;DHT22;43233;48.608;8.838;2022-12-29T06:51:45;10.60;55.70
32293;DHT22;43233;48.608;8.838;2022-12-29T06:54:10;10.50;56.40
32293;DHT22;43233;48.608;8.838;2022-12-29T06:56:36;10.50;56.30
32293;DHT22;43233;48.608;8.838;2022-12-29T06:59:02;10.50;56.40
32293;DHT22;43233;48.608;8.838;2022-12-29T07:01:28;10.40;56.60
32293;DHT22;43233;48.608;8.838;2022-12-29T07:03:54;10.50;56.60
32293;DHT22;43233;48.608;8.838;2022-12-29T07:06:20;10.40;56.10
32293;DHT22;43233;48.608;8.838;2022-12-29T07:08:46;10.50;56.60
32293;DHT22;43233;48.608;8.838;2022-12-29T07:11:12;10.50;57.20
32293;DHT22;43233;48.608;8.838;2022-12-29T07:13:37;10.40;56.90
32293;DHT22;43233;48.608;8.838;2022-12-29T07:16:07;10.40;56.90
32293;DHT22;43233;48.608;8.838;2022-12-29T07:18:32;10.30;56.90
32293;DHT22;43233;48.608;8.838;2022-12-29T07:20:58;10.20;56.80
32293;DHT22;43233;48.608;8.838;2022-12-29T07:23:24;10.20;57.10
32293;DHT22;43233;48.608;8.838;2022-12-29T07:25:49;10.20;57.00
32293;DHT22;43233;48.608;8.838;2022-12-29T07:28:15;10.20;57.00
32293;DHT22;43233;48.608;8.838;2022-12-29T07:30:41;10.10;57.20
32293;DHT22;43233;48.608;8.838;2022-12-29T07:33:06;10.00;57.60
32293;DHT22;43233;48.608;8.838;2022-12-29T07:35:34;9.90;57.90
32293;DHT22;43233;48.608;8.838;2022-12-29T07:37:59;9.80;58.30
32293;DHT22;43233;48.608;8.838;2022-12-29T07:40:25;9.80;58.20
32293;DHT22;43233;48.608;8.838;2022-12-29T07:42:51;9.80;58.40
32293;DHT22;43233;48.608;8.838;2022-12-29T07:45:16;9.80;58.40
32293;DHT22;43233;48.608;8.838;2022-12-29T07:47:42;9.80;58.30
32293;DHT22;43233;48.608;8.838;2022-12-29T07:50:07;9.80;58.40
32293;DHT22;43233;48.608;8.838;2022-12-29T07:52:33;9.90;58.20
32293;DHT22;43233;48.608;8.838;2022-12-29T07:54:59;9.90;58.20
32293;DHT22;43233;48.608;8.838;2022-12-29T07:57:25;9.90;58.30
32293;DHT22;43233;48.608;8.838;2022-12-29T07:59:50;10.00;58.40
32293;DHT22;43233;48.608;8.838;2022-12-29T08:02:16;10.00;58.10
32293;DHT22;43233;48.608;8.838;2022-12-29T08:04:41;10.00;58.10
32293;DHT22;43233;48.608;8.838;2022-12-29T08:07:07;10.00;58.30
32293;DHT22;43233;48.608;8.838;2022-12-29T08:09:32;10.00;58.80
32293;DHT22;43233;48.608;8.838;2022-12-29T08:11:58;9.90;58.80
32293;DHT22;43233;48.608;8.838;2022-12-29T08:14:24;9.90;59.00
32293;DHT22;43233;48.608;8.838;2022-12-29T08:16:49;9.90;59.30
32293;DHT22;43233;48.608;8.838;2022-12-29T08:19:15;9.80;58.60
32293;DHT22;43233;48.608;8.838;2022-12-29T08:21:41;9.90;58.90
32293;DHT22;43233;48.608;8.838;2022-12-29T08:24:08;9.90;58.90
32293;DHT22;43233;48.608;8.838;2022-12-29T08:26:33;10.00;58.50
32293;DHT22;43233;48.608;8.838;2022-12-29T08:28:59;10.00;58.30
32293;DHT22;43233;48.608;8.838;2022-12-29T08:31:24;10.00;58.30
32293;DHT22;43233;48.608;8.838;2022-12-29T08:33:50;10.00;58.20
32293;DHT22;43233;48.608;8.838;2022-12-29T08:36:16;10.10;57.60
32293;DHT22;43233;48.608;8.838;2022-12-29T08:38:42;10.50;55.70
32293;DHT22;43233;48.608;8.838;2022-12-29T08:41:07;10.70;55.30
32293;DHT22;43233;48.608;8.838;2022-12-29T08:43:33;10.80;54.40
32293;DHT22;43233;48.608;8.838;2022-12-29T08:45:59;10.80;54.00
32293;DHT22;43233;48.608;8.838;2022-12-29T08:48:25;10.90;53.40
32293;DHT22;43233;48.608;8.838;2022-12-29T08:50:51;10.90;53.70
32293;DHT22;43233;48.608;8.838;2022-12-29T08:53:17;11.00;53.30
32293;DHT22;43233;48.608;8.838;2022-12-29T08:55:47;11.00;53.40
32293;DHT22;43233;48.608;8.838;2022-12-29T08:58:19;11.00;53.70
32293;DHT22;43233;48.608;8.838;2022-12-29T09:00:44;11.10;53.10
32293;DHT22;43233;48.608;8.838;2022-12-29T09:03:10;11.00;53.10
32293;DHT22;43233;48.608;8.838;2022-12-29T09:05:36;11.10;53.00
32293;DHT22;43233;48.608;8.838;2022-12-29T09:08:02;11.20;52.50
32293;DHT22;43233;48.608;8.838;2022-12-29T09:10:28;11.30;52.40
32293;DHT22;43233;48.608;8.838;2022-12-29T09:12:53;11.30;52.50
32293;DHT22;43233;48.608;8.838;2022-12-29T09:15:19;11.30;52.50
32293;DHT22;43233;48.608;8.838;2022-12-29T09:17:45;11.30;52.60
32293;DHT22;43233;48.608;8.838;2022-12-29T09:20:16;11.30;53.00
32293;DHT22;43233;48.608;8.838;2022-12-29T09:22:43;11.30;53.20
32293;DHT22;43233;48.608;8.838;2022-12-29T09:25:10;11.30;53.20
32293;DHT22;43233;48.608;8.838;2022-12-29T09:27:36;11.40;53.20
32293;DHT22;43233;48.608;8.838;2022-12-29T09:30:03;11.50;53.40
32293;DHT22;43233;48.608;8.838;2022-12-29T09:32:29;11.50;53.30
32293;DHT22;43233;48.608;8.838;2022-12-29T09:34:55;11.60;53.20
32293;DHT22;43233;48.608;8.838;2022-12-29T09:37:20;11.60;53.50
32293;DHT22;43233;48.608;8.838;2022-12-29T09:39:46;11.60;53.80
32293;DHT22;43233;48.608;8.838;2022-12-29T09:45:02;11.60;54.00
32293;DHT22;43233;48.608;8.838;2022-12-29T09:47:30;11.70;53.30
32293;DHT22;43233;48.608;8.838;2022-12-29T09:50:01;11.70;53.40
32293;DHT22;43233;48.608;8.838;2022-12-29T09:53:17;11.60;53.10
32293;DHT22;43233;48.608;8.838;2022-12-29T09:55:30;11.60;53.70
32293;DHT22;43233;48.608;8.838;2022-12-29T09:58:00;11.60;53.60
32293;DHT22;43233;48.608;8.838;2022-12-29T10:00:39;11.60;53.80
32293;DHT22;43233;48.608;8.838;2022-12-29T10:03:15;11.50;54.50
32293;DHT22;43233;48.608;8.838;2022-12-29T10:05:48;11.50;54.60
32293;DHT22;43233;48.608;8.838;2022-12-29T10:24:48;11.70;54.80
32293;DHT22;43233;48.608;8.838;2022-12-29T10:27:16;11.60;55.20
32293;DHT22;43233;48.608;8.838;2022-12-29T10:29:48;11.60;54.60
32293;DHT22;43233;48.608;8.838;2022-12-29T10:34:51;11.70;55.00
32293;DHT22;43233;48.608;8.838;2022-12-29T10:41:02;11.80;54.70
32293;DHT22;43233;48.608;8.838;2022-12-29T10:43:34;11.80;54.70
32293;DHT22;43233;48.608;8.838;2022-12-29T10:46:11;11.70;54.30
32293;DHT22;43233;48.608;8.838;2022-12-29T10:48:38;11.70;54.20
32293;DHT22;43233;48.608;8.838;2022-12-29T10:51:08;11.60;54.40
32293;DHT22;43233;48.608;8.838;2022-12-29T10:56:44;11.70;54.60
32293;DHT22;43233;48.608;8.838;2022-12-29T10:59:24;11.70;55.50
32293;DHT22;43233;48.608;8.838;2022-12-29T11:01:56;11.70;54.80
32293;DHT22;43233;48.608;8.838;2022-12-29T11:07:08;11.50;55.80
32293;DHT22;43233;48.608;8.838;2022-12-29T11:09:37;11.50;56.60
32293;DHT22;43233;48.608;8.838;2022-12-29T11:12:36;11.50;57.10
32293;DHT22;43233;48.608;8.838;2022-12-29T11:17:48;11.40;57.90
32293;DHT22;43233;48.608;8.838;2022-12-29T11:22:54;11.40;58.90
32293;DHT22;43233;48.608;8.838;2022-12-29T11:25:20;11.30;60.50
32293;DHT22;43233;48.608;8.838;2022-12-29T11:28:18;11.40;60.90
32293;DHT22;43233;48.608;8.838;2022-12-29T11:30:43;11.60;60.50
32293;DHT22;43233;48.608;8.838;2022-12-29T11:33:09;11.80;60.70
32293;DHT22;43233;48.608;8.838;2022-12-29T11:35:40;11.80;59.70
32293;DHT22;43233;48.608;8.838;2022-12-29T11:38:20;11.70;59.90
32293;DHT22;43233;48.608;8.838;2022-12-29T11:40:46;11.50;60.50
32293;DHT22;43233;48.608;8.838;2022-12-29T11:43:38;11.30;61.00
32293;DHT22;43233;48.608;8.838;2022-12-29T11:46:06;11.20;61.70
32293;DHT22;43233;48.608;8.838;2022-12-29T11:48:39;11.00;62.10
32293;DHT22;43233;48.608;8.838;2022-12-29T11:51:06;11.00;62.80
32293;DHT22;43233;48.608;8.838;2022-12-29T11:53:45;11.00;63.20
32293;DHT22;43233;48.608;8.838;2022-12-29T11:56:17;10.90;63.50
32293;DHT22;43233;48.608;8.838;2022-12-29T11:58:45;11.00;63.60
32293;DHT22;43233;48.608;8.838;2022-12-29T12:01:33;10.90;64.20
32293;DHT22;43233;48.608;8.838;2022-12-29T12:04:03;10.80;64.40
32293;DHT22;43233;48.608;8.838;2022-12-29T12:06:34;10.80;64.90
32293;DHT22;43233;48.608;8.838;2022-12-29T12:09:06;10.80;65.70
32293;DHT22;43233;48.608;8.838;2022-12-29T12:11:38;10.80;66.20
32293;DHT22;43233;48.608;8.838;2022-12-29T12:16:52;10.80;66.50
32293;DHT22;43233;48.608;8.838;2022-12-29T12:22:40;10.60;68.40
32293;DHT22;43233;48.608;8.838;2022-12-29T12:25:50;10.60;69.60
32293;DHT22;43233;48.608;8.838;2022-12-29T12:28:20;10.50;69.70
32293;DHT22;43233;48.608;8.838;2022-12-29T12:30:51;10.50;71.00
32293;DHT22;43233;48.608;8.838;2022-12-29T12:33:29;10.40;71.40
32293;DHT22;43233;48.608;8.838;2022-12-29T12:36:09;10.40;71.50
32293;DHT22;43233;48.608;8.838;2022-12-29T12:44:01;10.40;71.70
32293;DHT22;43233;48.608;8.838;2022-12-29T12:47:00;10.60;71.70
32293;DHT22;43233;48.608;8.838;2022-12-29T12:58:58;13.20;62.10
32293;DHT22;43233;48.608;8.838;2022-12-29T13:01:42;13.80;58.40
32293;DHT22;43233;48.608;8.838;2022-12-29T13:07:06;13.50;59.00
32293;DHT22;43233;48.608;8.838;2022-12-29T13:17:30;12.70;59.40
32293;DHT22;43233;48.608;8.838;2022-12-29T13:22:46;12.50;61.00
32293;DHT22;43233;48.608;8.838;2022-12-29T13:25:35;12.50;60.80
32293;DHT22;43233;48.608;8.838;2022-12-29T13:30:40;12.10;62.20
32293;DHT22;43233;48.608;8.838;2022-12-29T13:33:24;11.80;64.10
32293;DHT22;43233;48.608;8.838;2022-12-29T13:36:05;11.60;64.90
32293;DHT22;43233;48.608;8.838;2022-12-29T13:38:43;11.70;66.20
32293;DHT22;43233;48.608;8.838;2022-12-29T13:44:03;11.60;66.90
32293;DHT22;43233;48.608;8.838;2022-12-29T13:46:49;11.60;66.60
32293;DHT22;43233;48.608;8.838;2022-12-29T13:51:56;11.50;66.40
32293;DHT22;43233;48.608;8.838;2022-12-29T13:54:37;11.50;66.20
32293;DHT22;43233;48.608;8.838;2022-12-29T14:07:46;11.40;65.70
32293;DHT22;43233;48.608;8.838;2022-12-29T14:13:11;11.40;66.00
32293;DHT22;43233;48.608;8.838;2022-12-29T14:15:39;11.30;66.50
32293;DHT22;43233;48.608;8.838;2022-12-29T14:18:18;11.10;67.40
32293;DHT22;43233;48.608;8.838;2022-12-29T14:20:54;11.00;67.80
32293;DHT22;43233;48.608;8.838;2022-12-29T14:23:38;11.10;68.00
32293;DHT22;43233;48.608;8.838;2022-12-29T14:28:36;11.10;67.00
32293;DHT22;43233;48.608;8.838;2022-12-29T14:39:43;11.00;66.40
32293;DHT22;43233;48.608;8.838;2022-12-29T14:42:12;11.00;66.40
32293;DHT22;43233;48.608;8.838;2022-12-29T14:45:39;11.00;66.30
32293;DHT22;43233;48.608;8.838;2022-12-29T14:47:48;11.00;65.10
32293;DHT22;43233;48.608;8.838;2022-12-29T14:50:22;11.00;65.50
32293;DHT22;43233;48.608;8.838;2022-12-29T14:52:55;10.90;65.90
32293;DHT22;43233;48.608;8.838;2022-12-29T14:55:47;10.80;66.00
32293;DHT22;43233;48.608;8.838;2022-12-29T15:00:45;10.70;66.50
32293;DHT22;43233;48.608;8.838;2022-12-29T15:03:28;10.60;67.30
32293;DHT22;43233;48.608;8.838;2022-12-29T15:05:56;10.60;66.80
32293;DHT22;43233;48.608;8.838;2022-12-29T15:08:26;10.60;66.90
32293;DHT22;43233;48.608;8.838;2022-12-29T15:11:04;10.60;66.90
32293;DHT22;43233;48.608;8.838;2022-12-29T15:13:39;10.60;66.50
32293;DHT22;43233;48.608;8.838;2022-12-29T15:18:48;10.60;66.60
32293;DHT22;43233;48.608;8.838;2022-12-29T15:21:15;10.60;66.60
32293;DHT22;43233;48.608;8.838;2022-12-29T15:23:43;10.60;66.80
32293;DHT22;43233;48.608;8.838;2022-12-29T15:26:10;10.60;66.40
32293;DHT22;43233;48.608;8.838;2022-12-29T15:28:43;10.60;66.60
32293;DHT22;43233;48.608;8.838;2022-12-29T15:31:15;10.60;66.10
32293;DHT22;43233;48.608;8.838;2022-12-29T15:33:47;10.60;65.80
32293;DHT22;43233;48.608;8.838;2022-12-29T15:36:21;10.70;66.00
32293;DHT22;43233;48.608;8.838;2022-12-29T15:38:48;10.70;65.70
32293;DHT22;43233;48.608;8.838;2022-12-29T15:46:30;10.60;66.00
32293;DHT22;43233;48.608;8.838;2022-12-29T15:48:56;10.60;66.70
32293;DHT22;43233;48.608;8.838;2022-12-29T15:51:35;10.60;65.90
32293;DHT22;43233;48.608;8.838;2022-12-29T15:54:02;10.50;65.90
32293;DHT22;43233;48.608;8.838;2022-12-29T15:56:29;10.50;66.40
32293;DHT22;43233;48.608;8.838;2022-12-29T15:58:56;10.50;66.50
32293;DHT22;43233;48.608;8.838;2022-12-29T16:01:35;10.40;67.30
32293;DHT22;43233;48.608;8.838;2022-12-29T16:04:06;10.40;67.70
32293;DHT22;43233;48.608;8.838;2022-12-29T16:09:35;10.20;70.80
32293;DHT22;43233;48.608;8.838;2022-12-29T16:12:07;10.10;71.40
32293;DHT22;43233;48.608;8.838;2022-12-29T16:14:42;10.10;73.20
32293;DHT22;43233;48.608;8.838;2022-12-29T16:17:12;10.00;72.80
32293;DHT22;43233;48.608;8.838;2022-12-29T16:19:42;10.00;73.30
32293;DHT22;43233;48.608;8.838;2022-12-29T16:22:17;9.90;74.00
32293;DHT22;43233;48.608;8.838;2022-12-29T16:24:45;9.90;74.40
32293;DHT22;43233;48.608;8.838;2022-12-29T16:27:22;9.90;74.00
32293;DHT22;43233;48.608;8.838;2022-12-29T16:29:53;9.90;74.30
32293;DHT22;43233;48.608;8.838;2022-12-29T16:32:29;9.80;74.40
32293;DHT22;43233;48.608;8.838;2022-12-29T16:35:21;9.80;75.00
32293;DHT22;43233;48.608;8.838;2022-12-29T16:37:51;9.80;74.90
32293;DHT22;43233;48.608;8.838;2022-12-29T16:40:31;9.80;75.30
32293;DHT22;43233;48.608;8.838;2022-12-29T16:43:02;9.70;75.20
32293;DHT22;43233;48.608;8.838;2022-12-29T16:46:06;9.70;75.50
32293;DHT22;43233;48.608;8.838;2022-12-29T16:48:32;9.80;75.40
32293;DHT22;43233;48.608;8.838;2022-12-29T16:51:17;9.70;75.30
32293;DHT22;43233;48.608;8.838;2022-12-29T16:53:54;9.70;75.40
32293;DHT22;43233;48.608;8.838;2022-12-29T16:56:28;9.70;75.50
32293;DHT22;43233;48.608;8.838;2022-12-29T16:59:05;9.70;75.70
32293;DHT22;43233;48.608;8.838;2022-12-29T17:01:36;9.70;75.40
32293;DHT22;43233;48.608;8.838;2022-12-29T17:04:06;9.70;75.10
32293;DHT22;43233;48.608;8.838;2022-12-29T17:06:33;9.80;74.60
32293;DHT22;43233;48.608;8.838;2022-12-29T17:08:58;9.80;74.60
32293;DHT22;43233;48.608;8.838;2022-12-29T17:11:33;9.80;74.40
32293;DHT22;43233;48.608;8.838;2022-12-29T17:14:37;9.80;74.10
32293;DHT22;43233;48.608;8.838;2022-12-29T17:17:17;9.80;74.30
32293;DHT22;43233;48.608;8.838;2022-12-29T17:19:50;9.70;74.30
32293;DHT22;43233;48.608;8.838;2022-12-29T17:22:23;9.60;74.20
32293;DHT22;43233;48.608;8.838;2022-12-29T17:24:53;9.70;74.10
32293;DHT22;43233;48.608;8.838;2022-12-29T17:27:26;9.70;73.90
32293;DHT22;43233;48.608;8.838;2022-12-29T17:29:55;9.70;74.00
32293;DHT22;43233;48.608;8.838;2022-12-29T17:32:21;9.70;74.20
32293;DHT22;43233;48.608;8.838;2022-12-29T17:34:47;9.60;74.40
32293;DHT22;43233;48.608;8.838;2022-12-29T17:37:39;9.60;74.40
32293;DHT22;43233;48.608;8.838;2022-12-29T17:40:07;9.60;74.50
32293;DHT22;43233;48.608;8.838;2022-12-29T17:42:34;9.60;74.30
32293;DHT22;43233;48.608;8.838;2022-12-29T17:45:02;9.60;74.20
32293;DHT22;43233;48.608;8.838;2022-12-29T17:47:27;9.60;74.10
32293;DHT22;43233;48.608;8.838;2022-12-29T17:49:53;9.60;74.20
32293;DHT22;43233;48.608;8.838;2022-12-29T17:52:19;9.60;74.10
32293;DHT22;43233;48.608;8.838;2022-12-29T17:54:48;9.60;74.30
32293;DHT22;43233;48.608;8.838;2022-12-29T17:57:15;9.60;74.10
32293;DHT22;43233;48.608;8.838;2022-12-29T17:59:41;9.50;74.40
32293;DHT22;43233;48.608;8.838;2022-12-29T18:02:30;9.60;74.40
32293;DHT22;43233;48.608;8.838;2022-12-29T18:04:57;9.60;75.00
32293;DHT22;43233;48.608;8.838;2022-12-29T18:07:27;9.60;74.30
32293;DHT22;43233;48.608;8.838;2022-12-29T18:09:54;9.50;74.30
32293;DHT22;43233;48.608;8.838;2022-12-29T18:12:30;9.50;74.40
32293;DHT22;43233;48.608;8.838;2022-12-29T18:14:56;9.50;75.20
32293;DHT22;43233;48.608;8.838;2022-12-29T18:17:22;9.40;75.20
32293;DHT22;43233;48.608;8.838;2022-12-29T18:19:47;9.50;75.20
32293;DHT22;43233;48.608;8.838;2022-12-29T18:22:15;9.50;75.10
32293;DHT22;43233;48.608;8.838;2022-12-29T18:24:40;9.50;74.90
32293;DHT22;43233;48.608;8.838;2022-12-29T18:27:13;9.60;74.80
32293;DHT22;43233;48.608;8.838;2022-12-29T18:29:40;9.60;74.80
32293;DHT22;43233;48.608;8.838;2022-12-29T18:32:12;9.60;74.80